Time,TemperatureF,DewpointF,PressureIn,WindDirection,WindDirectionDegrees,WindSpeedMPH,WindSpeedGustMPH,Humidity,HourlyPrecipIn,Conditions,Clouds,dailyrainin,SolarRadiationWatts/m^2,SoftwareType,DateUTC
2013-06-17 00:02:00,51.0,50.0,-100.00,SSE,150,0.0,2.0,95,0.00,,,0.00,0.000000,,2013-06-17 07:02:00,
2013-06-17 00:11:00,51.0,50.0,-100.00,SSE,150,0.0,2.0,95,0.00,,,0.00,0.000000,,2013-06-17 07:11:00,
2013-06-17 00:22:00,51.0,50.0,-100.00,SSE,150,0.0,2.0,95,0.00,,,0.00,0.000000,,2013-06-17 07:22:00,
2013-06-17 00:33:00,50.0,49.0,-100.00,NNW,336,0.0,2.0,97,0.00,,,0.00,0.000000,,2013-06-17 07:33:00,
2013-06-17 01:01:00,50.0,49.0,-100.00,NNW,336,0.0,2.0,97,0.00,,,0.00,0.000000,,2013-06-17 08:01:00,
2013-06-17 01:11:00,50.0,49.0,-100.00,NNW,336,0.0,2.0,97,0.00,,,0.00,0.000000,,2013-06-17 08:11:00,
2013-06-17 01:22:00,50.0,49.0,-100.00,NNW,336,0.0,2.0,97,0.00,,,0.00,0.000000,,2013-06-17 08:22:00,
2013-06-17 01:33:00,51.0,50.0,-100.00,NW,326,0.0,0.0,97,0.00,,,0.00,0.000000,,2013-06-17 08:33:00,
2013-06-17 02:02:00,51.0,50.0,-100.00,NW,326,0.0,0.0,97,0.00,,,0.00,0.000000,,2013-06-17 09:02:00,
2013-06-17 02:11:00,51.0,50.0,-100.00,NW,326,0.0,0.0,97,0.00,,,0.00,0.000000,,2013-06-17 09:11:00,
2013-06-17 02:22:00,51.0,50.0,-100.00,NW,326,0.0,0.0,97,0.00,,,0.00,0.000000,,2013-06-17 09:22:00,
2013-06-17 02:33:00,51.0,50.0,-100.00,NNW,347,0.0,2.0,95,0.00,,,0.00,0.000000,,2013-06-17 09:33:00,
2013-06-17 03:02:00,51.0,50.0,-100.00,NNW,347,0.0,2.0,95,0.00,,,0.00,0.000000,,2013-06-17 10:02:00,
2013-06-17 03:12:00,51.0,50.0,-100.00,NNW,347,0.0,2.0,95,0.00,,,0.00,0.000000,,2013-06-17 10:12:00,
2013-06-17 03:22:00,51.0,50.0,-100.00,NNW,347,0.0,2.0,95,0.00,,,0.00,0.000000,,2013-06-17 10:22:00,
2013-06-17 03:33:00,49.0,48.0,-100.00,NE,34,0.0,2.0,98,0.00,,,0.00,0.000000,,2013-06-17 10:33:00,
2013-06-17 04:02:00,49.0,48.0,-100.00,NE,34,0.0,2.0,98,0.00,,,0.00,0.000000,,2013-06-17 11:02:00,
2013-06-17 04:11:00,49.0,48.0,-100.00,NE,34,0.0,2.0,98,0.00,,,0.00,0.000000,,2013-06-17 11:11:00,
2013-06-17 04:23:00,49.0,48.0,-100.00,NE,34,0.0,2.0,98,0.00,,,0.00,0.000000,,2013-06-17 11:23:00,
2013-06-17 04:33:00,47.0,47.0,-100.00,NE,37,0.0,1.0,99,0.00,,,0.00,0.000000,,2013-06-17 11:33:00,
2013-06-17 05:02:00,47.0,47.0,-100.00,NE,37,0.0,1.0,99,0.00,,,0.00,0.000000,,2013-06-17 12:02:00,
2013-06-17 05:11:00,47.0,47.0,-100.00,NE,37,0.0,1.0,99,0.00,,,0.00,0.000000,,2013-06-17 12:11:00,
2013-06-17 05:22:00,47.0,47.0,-100.00,NE,37,0.0,1.0,99,0.00,,,0.00,0.000000,,2013-06-17 12:22:00,
2013-06-17 06:01:00,49.0,49.0,-100.00,NE,49,0.0,2.0,99,0.00,,,0.00,3.000000,,2013-06-17 13:01:00,
2013-06-17 06:11:00,49.0,49.0,-100.00,NE,49,0.0,2.0,99,0.00,,,0.00,3.000000,,2013-06-17 13:11:00,
2013-06-17 06:22:00,49.0,49.0,-100.00,NE,49,0.0,2.0,99,0.00,,,0.00,3.000000,,2013-06-17 13:22:00,
2013-06-17 06:32:00,49.0,49.0,-100.00,NE,49,0.0,2.0,99,0.00,,,0.00,3.000000,,2013-06-17 13:32:00,
2013-06-17 06:33:00,52.0,50.0,-100.00,NNE,21,1.0,5.0,92,0.00,,,0.00,52.000000,,2013-06-17 13:33:00,
2013-06-17 07:02:00,52.0,50.0,-100.00,NNE,21,1.0,5.0,92,0.00,,,0.00,52.000000,,2013-06-17 14:02:00,
2013-06-17 07:11:00,52.0,50.0,-100.00,NNE,21,1.0,5.0,92,0.00,,,0.00,52.000000,,2013-06-17 14:11:00,
2013-06-17 07:22:00,52.0,50.0,-100.00,NNE,21,1.0,5.0,92,0.00,,,0.00,52.000000,,2013-06-17 14:22:00,
2013-06-17 07:33:00,56.0,51.0,-100.00,NNW,337,2.0,6.0,84,0.00,,,0.00,166.000000,,2013-06-17 14:33:00,
2013-06-17 08:01:00,56.0,51.0,-100.00,NNW,337,2.0,6.0,84,0.00,,,0.00,166.000000,,2013-06-17 15:01:00,
2013-06-17 08:12:00,56.0,51.0,-100.00,NNW,337,2.0,6.0,84,0.00,,,0.00,166.000000,,2013-06-17 15:12:00,
2013-06-17 08:22:00,56.0,51.0,-100.00,NNW,337,2.0,6.0,84,0.00,,,0.00,166.000000,,2013-06-17 15:22:00,
2013-06-17 09:11:00,63.0,53.0,-100.00,NW,316,1.0,4.0,71,0.00,,,0.00,371.000000,,2013-06-17 16:11:00,
2013-06-17 09:22:00,63.0,53.0,-100.00,NW,316,1.0,4.0,71,0.00,,,0.00,371.000000,,2013-06-17 16:22:00,
2013-06-17 09:33:00,64.0,52.0,-100.00,South,177,3.0,9.0,65,0.00,,,0.00,395.000000,,2013-06-17 16:33:00,
2013-06-17 10:02:00,64.0,52.0,-100.00,South,177,3.0,9.0,65,0.00,,,0.00,395.000000,,2013-06-17 17:02:00,
2013-06-17 10:11:00,64.0,52.0,-100.00,South,177,3.0,9.0,65,0.00,,,0.00,395.000000,,2013-06-17 17:11:00,
2013-06-17 10:22:00,64.0,52.0,-100.00,South,177,3.0,9.0,65,0.00,,,0.00,395.000000,,2013-06-17 17:22:00,
2013-06-17 10:33:00,65.0,52.0,-100.00,SW,226,1.0,7.0,63,0.00,,,0.00,399.000000,,2013-06-17 17:33:00,
2013-06-17 11:02:00,65.0,52.0,-100.00,SW,226,1.0,7.0,63,0.00,,,0.00,399.000000,,2013-06-17 18:02:00,
2013-06-17 11:12:00,65.0,52.0,-100.00,SW,226,1.0,7.0,63,0.00,,,0.00,399.000000,,2013-06-17 18:12:00,
2013-06-17 11:23:00,65.0,52.0,-100.00,SW,226,1.0,7.0,63,0.00,,,0.00,399.000000,,2013-06-17 18:23:00,
2013-06-17 11:33:00,68.0,53.0,-100.00,SSW,195,2.0,10.0,59,0.00,,,0.00,618.000000,,2013-06-17 18:33:00,
2013-06-17 11:53:00,68.0,53.0,-100.00,SSW,195,2.0,10.0,59,0.00,,,0.00,618.000000,,2013-06-17 18:53:00,
2013-06-17 12:02:00,68.0,53.0,-100.00,SSW,195,2.0,10.0,59,0.00,,,0.00,618.000000,,2013-06-17 19:02:00,
2013-06-17 12:11:00,68.0,53.0,-100.00,SSW,195,2.0,10.0,59,0.00,,,0.00,618.000000,,2013-06-17 19:11:00,
2013-06-17 12:22:00,68.0,53.0,-100.00,SSW,195,2.0,10.0,59,0.00,,,0.00,618.000000,,2013-06-17 19:22:00,
2013-06-17 13:02:00,70.0,52.0,-100.00,SSW,208,3.0,13.0,53,0.00,,,0.00,798.000000,,2013-06-17 20:02:00,
2013-06-17 13:33:00,68.0,54.0,-100.00,WSW,251,4.0,13.0,61,-99.99,,,0.00,723.000000,,2013-06-17 20:33:00,
2013-06-17 14:01:00,68.0,54.0,-100.00,WSW,251,4.0,13.0,61,-99.99,,,0.00,723.000000,,2013-06-17 21:01:00,
2013-06-17 14:12:00,68.0,54.0,-100.00,WSW,251,4.0,13.0,61,-99.99,,,0.00,723.000000,,2013-06-17 21:12:00,
2013-06-17 14:22:00,68.0,54.0,-100.00,WSW,251,4.0,13.0,61,-99.99,,,0.00,723.000000,,2013-06-17 21:22:00,
2013-06-17 17:33:00,64.0,51.0,-100.00,SW,223,2.0,10.0,63,-99.99,,,0.00,434.000000,,2013-06-18 00:33:00,
2013-06-17 18:01:00,64.0,51.0,-100.00,SW,223,2.0,10.0,63,-99.99,,,0.00,434.000000,,2013-06-18 01:01:00,
2013-06-17 18:11:00,64.0,51.0,-100.00,SW,223,2.0,10.0,63,-99.99,,,0.00,434.000000,,2013-06-18 01:11:00,
2013-06-17 18:23:00,64.0,51.0,-100.00,SW,223,2.0,10.0,63,-99.99,,,0.00,434.000000,,2013-06-18 01:23:00,
2013-06-17 18:33:00,63.0,51.0,-100.00,SW,228,2.0,8.0,64,0.00,,,0.00,233.000000,,2013-06-18 01:33:00,
2013-06-17 19:02:00,63.0,51.0,-100.00,SW,228,2.0,8.0,64,0.00,,,0.00,233.000000,,2013-06-18 02:02:00,
2013-06-17 19:11:00,63.0,51.0,-100.00,SW,228,2.0,8.0,64,0.00,,,0.00,233.000000,,2013-06-18 02:11:00,
2013-06-17 19:22:00,63.0,51.0,-100.00,SW,228,2.0,8.0,64,0.00,,,0.00,233.000000,,2013-06-18 02:22:00,
2013-06-17 19:33:00,60.0,50.0,-100.00,SSW,211,1.0,5.0,70,0.00,,,0.00,85.000000,,2013-06-18 02:33:00,
2013-06-17 19:53:00,60.0,50.0,-100.00,SSW,211,1.0,5.0,70,0.00,,,0.00,85.000000,,2013-06-18 02:53:00,
2013-06-17 20:02:00,60.0,50.0,-100.00,SSW,211,1.0,5.0,70,0.00,,,0.00,85.000000,,2013-06-18 03:02:00,
2013-06-17 20:12:00,60.0,50.0,-100.00,SSW,211,1.0,5.0,70,0.00,,,0.00,85.000000,,2013-06-18 03:12:00,
2013-06-17 20:23:00,60.0,50.0,-100.00,SSW,211,1.0,5.0,70,0.00,,,0.00,85.000000,,2013-06-18 03:23:00,
2013-06-17 20:33:00,56.0,53.0,-100.00,SSE,155,2.0,9.0,90,0.05,,,0.05,12.000000,,2013-06-18 03:33:00,
2013-06-17 20:53:00,56.0,53.0,-100.00,SSE,155,2.0,9.0,90,0.05,,,0.05,12.000000,,2013-06-18 03:53:00,
2013-06-17 21:01:00,56.0,53.0,-100.00,SSE,155,2.0,9.0,90,0.05,,,0.05,12.000000,,2013-06-18 04:01:00,
2013-06-17 21:11:00,56.0,53.0,-100.00,SSE,155,2.0,9.0,90,0.05,,,0.05,12.000000,,2013-06-18 04:11:00,
2013-06-17 21:22:00,56.0,53.0,-100.00,SSE,155,2.0,9.0,90,0.05,,,0.05,12.000000,,2013-06-18 04:22:00,
2013-06-17 21:33:00,55.0,53.0,-100.00,SW,223,0.0,7.0,94,0.08,,,0.13,2.000000,,2013-06-18 04:33:00,
2013-06-17 22:02:00,55.0,53.0,-100.00,SW,223,0.0,7.0,94,0.08,,,0.13,2.000000,,2013-06-18 05:02:00,
2013-06-17 22:12:00,55.0,53.0,-100.00,SW,223,0.0,7.0,94,0.08,,,0.13,2.000000,,2013-06-18 05:12:00,
2013-06-17 22:22:00,55.0,53.0,-100.00,SW,223,0.0,7.0,94,0.08,,,0.13,2.000000,,2013-06-18 05:22:00,
2013-06-17 23:02:00,54.0,53.0,-100.00,NNW,348,1.0,3.0,98,0.00,,,0.13,0.000000,,2013-06-18 06:02:00,
2013-06-17 23:11:00,54.0,53.0,-100.00,NNW,348,1.0,3.0,98,0.00,,,0.13,0.000000,,2013-06-18 06:11:00,
2013-06-17 23:23:00,54.0,53.0,-100.00,NNW,348,1.0,3.0,98,0.00,,,0.13,0.000000,,2013-06-18 06:23:00,
2013-06-17 23:32:00,54.0,53.0,-100.00,NNW,348,1.0,3.0,98,0.00,,,0.13,0.000000,,2013-06-18 06:32:00,
2013-06-17 23:33:00,54.0,53.0,-100.00,SE,138,0.0,4.0,98,0.03,,,0.16,0.000000,,2013-06-18 06:33:00,